sensor_id;sensor_type;location;lat;lon;timestamp;temperature;humidity
21944;DHT22;11136;48.778;9.126;2023-02-20T00:00:09;10.00;99.90
21944;DHT22;11136;48.778;9.126;2023-02-20T00:02:40;10.00;99.90
21944;DHT22;11136;48.778;9.126;2023-02-20T00:05:05;10.00;99.90
21944;DHT22;11136;48.778;9.126;2023-02-20T00:07:31;10.00;99.90
21944;DHT22;11136;48.778;9.126;2023-02-20T00:09:57;10.00;99.90
21944;DHT22;11136;48.778;9.126;2023-02-20T00:12:22;9.90;99.90
21944;DHT22;11136;48.778;9.126;2023-02-20T00:14:50;9.90;99.90
21944;DHT22;11136;48.778;9.126;2023-02-20T00:17:15;9.90;99.90
21944;DHT22;11136;48.778;9.126;2023-02-20T00:19:41;10.00;99.90
21944;DHT22;11136;48.778;9.126;2023-02-20T00:22:06;9.90;99.90
21944;DHT22;11136;48.778;9.126;2023-02-20T00:24:32;9.90;99.90
21944;DHT22;11136;48.778;9.126;2023-02-20T00:26:58;10.10;99.90
21944;DHT22;11136;48.778;9.126;2023-02-20T00:29:24;9.90;99.90
21944;DHT22;11136;48.778;9.126;2023-02-20T00:31:54;9.80;99.90
21944;DHT22;11136;48.778;9.126;2023-02-20T00:34:22;9.80;99.90
21944;DHT22;11136;48.778;9.126;2023-02-20T00:36:47;9.80;99.90
21944;DHT22;11136;48.778;9.126;2023-02-20T00:39:13;9.80;99.90
21944;DHT22;11136;48.778;9.126;2023-02-20T00:41:39;9.70;99.90
21944;DHT22;11136;48.778;9.126;2023-02-20T00:44:04;9.70;99.90
21944;DHT22;11136;48.778;9.126;2023-02-20T00:46:30;9.70;99.90
21944;DHT22;11136;48.778;9.126;2023-02-20T00:48:57;9.70;99.90
21944;DHT22;11136;48.778;9.126;2023-02-20T00:51:23;9.70;99.90
21944;DHT22;11136;48.778;9.126;2023-02-20T00:53:48;9.70;99.90
21944;DHT22;11136;48.778;9.126;2023-02-20T00:56:14;9.70;99.90
21944;DHT22;11136;48.778;9.126;2023-02-20T00:58:40;9.70;99.90
21944;DHT22;11136;48.778;9.126;2023-02-20T01:01:06;9.70;99.90
21944;DHT22;11136;48.778;9.126;2023-02-20T01:03:31;9.60;99.90
21944;DHT22;11136;48.778;9.126;2023-02-20T01:05:57;9.60;99.90
21944;DHT22;11136;48.778;9.126;2023-02-20T01:08:23;9.60;99.90
21944;DHT22;11136;48.778;9.126;2023-02-20T01:10:49;9.60;99.90
21944;DHT22;11136;48.778;9.126;2023-02-20T01:13:15;9.50;99.90
21944;DHT22;11136;48.778;9.126;2023-02-20T01:15:40;9.50;99.90
21944;DHT22;11136;48.778;9.126;2023-02-20T01:18:06;9.50;99.90
21944;DHT22;11136;48.778;9.126;2023-02-20T01:20:32;9.50;99.90
21944;DHT22;11136;48.778;9.126;2023-02-20T01:22:57;9.40;99.90
21944;DHT22;11136;48.778;9.126;2023-02-20T01:25:23;9.40;99.90
21944;DHT22;11136;48.778;9.126;2023-02-20T01:27:48;9.40;99.90
21944;DHT22;11136;48.778;9.126;2023-02-20T01:30:14;9.30;99.90
21944;DHT22;11136;48.778;9.126;2023-02-20T01:32:40;9.30;99.90
21944;DHT22;11136;48.778;9.126;2023-02-20T01:35:06;9.30;99.90
21944;DHT22;11136;48.778;9.126;2023-02-20T01:37:32;9.30;99.90
21944;DHT22;11136;48.778;9.126;2023-02-20T01:39:57;9.30;99.90
21944;DHT22;11136;48.778;9.126;2023-02-20T01:42:25;9.20;99.90
21944;DHT22;11136;48.778;9.126;2023-02-20T01:44:52;9.20;99.90
21944;DHT22;11136;48.778;9.126;2023-02-20T01:47:22;9.20;99.90
21944;DHT22;11136;48.778;9.126;2023-02-20T01:49:58;9.20;99.90
21944;DHT22;11136;48.778;9.126;2023-02-20T01:52:30;9.20;99.90
21944;DHT22;11136;48.778;9.126;2023-02-20T01:55:16;9.20;99.90
21944;DHT22;11136;48.778;9.126;2023-02-20T01:57:47;9.20;99.90
21944;DHT22;11136;48.778;9.126;2023-02-20T02:00:17;9.10;99.90
21944;DHT22;11136;48.778;9.126;2023-02-20T02:02:59;9.10;99.90
21944;DHT22;11136;48.778;9.126;2023-02-20T02:05:28;9.10;99.90
21944;DHT22;11136;48.778;9.126;2023-02-20T02:07:55;9.10;99.90
21944;DHT22;11136;48.778;9.126;2023-02-20T02:10:30;9.10;99.90
21944;DHT22;11136;48.778;9.126;2023-02-20T02:12:56;9.10;99.90
21944;DHT22;11136;48.778;9.126;2023-02-20T02:15:23;9.10;99.90
21944;DHT22;11136;48.778;9.126;2023-02-20T02:21:08;9.10;99.90
21944;DHT22;11136;48.778;9.126;2023-02-20T02:24:26;9.20;99.90
21944;DHT22;11136;48.778;9.126;2023-02-20T02:26:55;9.20;99.90
21944;DHT22;11136;48.778;9.126;2023-02-20T02:34:58;9.10;99.90
21944;DHT22;11136;48.778;9.126;2023-02-20T02:40:19;9.10;99.90
21944;DHT22;11136;48.778;9.126;2023-02-20T02:50:55;9.10;99.90
21944;DHT22;11136;48.778;9.126;2023-02-20T02:53:22;9.10;99.90
21944;DHT22;11136;48.778;9.126;2023-02-20T02:55:47;9.10;99.90
21944;DHT22;11136;48.778;9.126;2023-02-20T02:58:14;9.10;99.90
21944;DHT22;11136;48.778;9.126;2023-02-20T03:01:00;9.10;99.90
21944;DHT22;11136;48.778;9.126;2023-02-20T03:03:33;9.00;99.90
21944;DHT22;11136;48.778;9.126;2023-02-20T03:06:11;9.00;99.90
21944;DHT22;11136;48.778;9.126;2023-02-20T03:08:44;9.00;99.90
21944;DHT22;11136;48.778;9.126;2023-02-20T03:11:16;9.00;99.90
21944;DHT22;11136;48.778;9.126;2023-02-20T03:13:56;9.00;99.90
21944;DHT22;11136;48.778;9.126;2023-02-20T03:17:11;9.00;99.90
21944;DHT22;11136;48.778;9.126;2023-02-20T03:19:49;9.00;99.90
21944;DHT22;11136;48.778;9.126;2023-02-20T03:22:20;9.00;99.90
21944;DHT22;11136;48.778;9.126;2023-02-20T03:24:48;9.00;99.90
21944;DHT22;11136;48.778;9.126;2023-02-20T03:27:24;9.00;99.90
21944;DHT22;11136;48.778;9.126;2023-02-20T03:29:56;9.00;99.90
21944;DHT22;11136;48.778;9.126;2023-02-20T03:32:24;9.00;99.90
21944;DHT22;11136;48.778;9.126;2023-02-20T03:35:10;9.00;99.90
21944;DHT22;11136;48.778;9.126;2023-02-20T03:37:55;8.90;99.90
21944;DHT22;11136;48.778;9.126;2023-02-20T03:40:41;8.90;99.90
21944;DHT22;11136;48.778;9.126;2023-02-20T03:43:26;8.90;99.90
21944;DHT22;11136;48.778;9.126;2023-02-20T03:46:02;8.90;99.90
21944;DHT22;11136;48.778;9.126;2023-02-20T03:51:06;8.80;99.90
21944;DHT22;11136;48.778;9.126;2023-02-20T03:53:51;8.80;99.90
21944;DHT22;11136;48.778;9.126;2023-02-20T03:56:22;8.80;99.90
21944;DHT22;11136;48.778;9.126;2023-02-20T03:59:17;8.70;99.90
21944;DHT22;11136;48.778;9.126;2023-02-20T04:01:46;8.70;99.90
21944;DHT22;11136;48.778;9.126;2023-02-20T04:04:17;8.70;99.90
21944;DHT22;11136;48.778;9.126;2023-02-20T04:06:45;8.60;99.90
21944;DHT22;11136;48.778;9.126;2023-02-20T04:09:18;8.60;99.90
21944;DHT22;11136;48.778;9.126;2023-02-20T04:11:49;8.60;99.90
21944;DHT22;11136;48.778;9.126;2023-02-20T04:14:18;8.50;99.90
21944;DHT22;11136;48.778;9.126;2023-02-20T04:16:49;8.50;99.90
21944;DHT22;11136;48.778;9.126;2023-02-20T04:19:15;8.50;99.90
21944;DHT22;11136;48.778;9.126;2023-02-20T04:21:50;8.40;99.90
21944;DHT22;11136;48.778;9.126;2023-02-20T04:24:22;8.40;99.90
21944;DHT22;11136;48.778;9.126;2023-02-20T04:26:48;8.40;99.90
21944;DHT22;11136;48.778;9.126;2023-02-20T04:29:14;8.30;99.90
21944;DHT22;11136;48.778;9.126;2023-02-20T04:31:40;8.30;99.90
21944;DHT22;11136;48.778;9.126;2023-02-20T04:34:06;8.30;99.90
21944;DHT22;11136;48.778;9.126;2023-02-20T04:36:31;8.20;99.90
21944;DHT22;11136;48.778;9.126;2023-02-20T04:38:57;8.20;99.90
21944;DHT22;11136;48.778;9.126;2023-02-20T04:41:23;8.20;99.90
21944;DHT22;11136;48.778;9.126;2023-02-20T04:43:48;8.10;99.90
21944;DHT22;11136;48.778;9.126;2023-02-20T04:46:14;8.10;99.90
21944;DHT22;11136;48.778;9.126;2023-02-20T04:48:40;8.10;99.90
21944;DHT22;11136;48.778;9.126;2023-02-20T04:51:05;8.00;99.90
21944;DHT22;11136;48.778;9.126;2023-02-20T04:53:31;8.00;99.90
21944;DHT22;11136;48.778;9.126;2023-02-20T04:55:56;7.90;99.90
21944;DHT22;11136;48.778;9.126;2023-02-20T04:58:22;7.90;99.90
21944;DHT22;11136;48.778;9.126;2023-02-20T05:00:48;7.90;99.90
21944;DHT22;11136;48.778;9.126;2023-02-20T05:03:13;7.90;99.90
21944;DHT22;11136;48.778;9.126;2023-02-20T05:05:39;7.80;99.90
21944;DHT22;11136;48.778;9.126;2023-02-20T05:08:06;7.80;99.90
21944;DHT22;11136;48.778;9.126;2023-02-20T05:10:34;7.80;99.90
21944;DHT22;11136;48.778;9.126;2023-02-20T05:13:00;7.70;99.90
21944;DHT22;11136;48.778;9.126;2023-02-20T05:15:27;7.70;99.90
21944;DHT22;11136;48.778;9.126;2023-02-20T05:17:53;7.70;99.90
21944;DHT22;11136;48.778;9.126;2023-02-20T05:20:19;7.70;99.90
21944;DHT22;11136;48.778;9.126;2023-02-20T05:22:46;7.60;99.90
21944;DHT22;11136;48.778;9.126;2023-02-20T05:25:12;7.60;99.90
21944;DHT22;11136;48.778;9.126;2023-02-20T05:27:38;7.60;99.90
21944;DHT22;11136;48.778;9.126;2023-02-20T05:30:05;7.60;99.90
21944;DHT22;11136;48.778;9.126;2023-02-20T05:32:30;7.60;99.90
21944;DHT22;11136;48.778;9.126;2023-02-20T05:34:56;7.50;99.90
21944;DHT22;11136;48.778;9.126;2023-02-20T05:37:24;7.50;99.90
21944;DHT22;11136;48.778;9.126;2023-02-20T05:39:50;7.50;99.90
21944;DHT22;11136;48.778;9.126;2023-02-20T05:42:16;7.40;99.90
21944;DHT22;11136;48.778;9.126;2023-02-20T05:44:42;7.40;99.90
21944;DHT22;11136;48.778;9.126;2023-02-20T05:47:09;7.50;99.90
21944;DHT22;11136;48.778;9.126;2023-02-20T05:49:35;7.40;99.90
21944;DHT22;11136;48.778;9.126;2023-02-20T05:52:02;7.40;99.90
21944;DHT22;11136;48.778;9.126;2023-02-20T05:54:28;7.30;99.90
21944;DHT22;11136;48.778;9.126;2023-02-20T05:56:54;7.30;99.90
21944;DHT22;11136;48.778;9.126;2023-02-20T05:59:21;7.20;99.90
21944;DHT22;11136;48.778;9.126;2023-02-20T06:01:47;7.20;99.90
21944;DHT22;11136;48.778;9.126;2023-02-20T06:04:17;7.20;99.90
21944;DHT22;11136;48.778;9.126;2023-02-20T06:06:43;7.20;99.90
21944;DHT22;11136;48.778;9.126;2023-02-20T06:09:11;7.20;99.90
21944;DHT22;11136;48.778;9.126;2023-02-20T06:11:37;7.20;99.90
21944;DHT22;11136;48.778;9.126;2023-02-20T06:14:04;7.10;99.90
21944;DHT22;11136;48.778;9.126;2023-02-20T06:16:30;7.10;99.90
21944;DHT22;11136;48.778;9.126;2023-02-20T06:18:56;7.10;99.90
21944;DHT22;11136;48.778;9.126;2023-02-20T06:21:23;7.10;99.90
21944;DHT22;11136;48.778;9.126;2023-02-20T06:23:49;7.10;99.90
21944;DHT22;11136;48.778;9.126;2023-02-20T06:26:16;7.00;99.90
21944;DHT22;11136;48.778;9.126;2023-02-20T06:28:43;7.00;99.90
21944;DHT22;11136;48.778;9.126;2023-02-20T06:31:10;7.00;99.90
21944;DHT22;11136;48.778;9.126;2023-02-20T06:33:36;7.00;99.90
21944;DHT22;11136;48.778;9.126;2023-02-20T06:36:03;6.90;99.90
21944;DHT22;11136;48.778;9.126;2023-02-20T06:38:29;6.90;99.90
21944;DHT22;11136;48.778;9.126;2023-02-20T06:40:55;6.90;99.90
21944;DHT22;11136;48.778;9.126;2023-02-20T06:43:21;6.90;99.90
21944;DHT22;11136;48.778;9.126;2023-02-20T06:45:46;6.90;99.90
21944;DHT22;11136;48.778;9.126;2023-02-20T06:48:13;6.90;99.90
21944;DHT22;11136;48.778;9.126;2023-02-20T06:50:39;6.90;99.90
21944;DHT22;11136;48.778;9.126;2023-02-20T06:53:05;6.90;99.90
21944;DHT22;11136;48.778;9.126;2023-02-20T06:55:31;6.90;99.90
21944;DHT22;11136;48.778;9.126;2023-02-20T06:57:57;6.90;99.90
21944;DHT22;11136;48.778;9.126;2023-02-20T07:00:23;6.90;99.90
21944;DHT22;11136;48.778;9.126;2023-02-20T07:02:49;6.90;99.90
21944;DHT22;11136;48.778;9.126;2023-02-20T07:05:14;6.90;99.90
21944;DHT22;11136;48.778;9.126;2023-02-20T07:07:41;6.90;99.90
21944;DHT22;11136;48.778;9.126;2023-02-20T07:10:07;6.90;99.90
21944;DHT22;11136;48.778;9.126;2023-02-20T07:12:33;7.10;99.90
21944;DHT22;11136;48.778;9.126;2023-02-20T07:15:04;6.90;99.90
21944;DHT22;11136;48.778;9.126;2023-02-20T07:17:30;6.90;99.90
21944;DHT22;11136;48.778;9.126;2023-02-20T07:19:56;6.90;99.90
21944;DHT22;11136;48.778;9.126;2023-02-20T07:22:21;6.90;99.90
21944;DHT22;11136;48.778;9.126;2023-02-20T07:24:53;6.90;99.90
21944;DHT22;11136;48.778;9.126;2023-02-20T07:27:19;7.00;99.90
21944;DHT22;11136;48.778;9.126;2023-02-20T07:29:46;7.00;99.90
21944;DHT22;11136;48.778;9.126;2023-02-20T07:32:13;7.00;99.90
21944;DHT22;11136;48.778;9.126;2023-02-20T07:34:39;7.00;99.90
21944;DHT22;11136;48.778;9.126;2023-02-20T07:37:05;7.00;99.90
21944;DHT22;11136;48.778;9.126;2023-02-20T07:39:30;7.10;99.90
21944;DHT22;11136;48.778;9.126;2023-02-20T07:41:56;7.40;99.90
21944;DHT22;11136;48.778;9.126;2023-02-20T07:44:22;7.10;99.90
21944;DHT22;11136;48.778;9.126;2023-02-20T07:46:47;7.20;99.90
21944;DHT22;11136;48.778;9.126;2023-02-20T07:49:13;7.30;99.90
21944;DHT22;11136;48.778;9.126;2023-02-20T07:51:38;7.40;99.90
21944;DHT22;11136;48.778;9.126;2023-02-20T07:54:04;7.50;99.90
21944;DHT22;11136;48.778;9.126;2023-02-20T07:56:30;7.60;99.90
21944;DHT22;11136;48.778;9.126;2023-02-20T07:58:55;7.70;99.90
21944;DHT22;11136;48.778;9.126;2023-02-20T08:01:21;7.80;99.90
21944;DHT22;11136;48.778;9.126;2023-02-20T08:03:47;7.90;99.90
21944;DHT22;11136;48.778;9.126;2023-02-20T08:06:16;8.00;99.90
21944;DHT22;11136;48.778;9.126;2023-02-20T08:08:46;8.20;99.90
21944;DHT22;11136;48.778;9.126;2023-02-20T08:11:12;8.30;99.90
21944;DHT22;11136;48.778;9.126;2023-02-20T08:13:38;8.40;99.90
21944;DHT22;11136;48.778;9.126;2023-02-20T08:16:03;8.50;99.90
21944;DHT22;11136;48.778;9.126;2023-02-20T08:18:29;8.70;99.90
21944;DHT22;11136;48.778;9.126;2023-02-20T08:20:54;8.90;99.90
21944;DHT22;11136;48.778;9.126;2023-02-20T08:23:22;9.10;99.90
21944;DHT22;11136;48.778;9.126;2023-02-20T08:25:48;9.40;99.90
21944;DHT22;11136;48.778;9.126;2023-02-20T08:28:14;9.60;99.90
21944;DHT22;11136;48.778;9.126;2023-02-20T08:30:40;9.80;99.90
21944;DHT22;11136;48.778;9.126;2023-02-20T08:33:06;10.10;99.90
21944;DHT22;11136;48.778;9.126;2023-02-20T08:35:32;10.30;99.90
21944;DHT22;11136;48.778;9.126;2023-02-20T08:38:03;10.60;99.90
21944;DHT22;11136;48.778;9.126;2023-02-20T08:40:29;10.80;99.90
21944;DHT22;11136;48.778;9.126;2023-02-20T08:42:54;11.10;99.90
21944;DHT22;11136;48.778;9.126;2023-02-20T08:45:20;11.20;99.90
21944;DHT22;11136;48.778;9.126;2023-02-20T08:47:47;11.40;99.90
21944;DHT22;11136;48.778;9.126;2023-02-20T08:50:13;11.50;99.90
21944;DHT22;11136;48.778;9.126;2023-02-20T08:52:42;11.60;99.90
21944;DHT22;11136;48.778;9.126;2023-02-20T08:55:08;11.60;99.90
21944;DHT22;11136;48.778;9.126;2023-02-20T08:57:33;11.70;99.90
21944;DHT22;11136;48.778;9.126;2023-02-20T08:59:59;11.70;99.90
21944;DHT22;11136;48.778;9.126;2023-02-20T09:02:25;11.80;99.90
21944;DHT22;11136;48.778;9.126;2023-02-20T09:04:53;12.00;99.90
21944;DHT22;11136;48.778;9.126;2023-02-20T09:07:19;12.10;99.90
21944;DHT22;11136;48.778;9.126;2023-02-20T09:09:45;12.20;99.90
21944;DHT22;11136;48.778;9.126;2023-02-20T09:12:11;12.30;99.90
21944;DHT22;11136;48.778;9.126;2023-02-20T09:14:37;12.50;99.90
21944;DHT22;11136;48.778;9.126;2023-02-20T09:17:03;12.50;99.90
21944;DHT22;11136;48.778;9.126;2023-02-20T09:19:29;12.70;99.60
21944;DHT22;11136;48.778;9.126;2023-02-20T09:21:55;12.70;99.60
21944;DHT22;11136;48.778;9.126;2023-02-20T09:24:21;12.80;98.90
21944;DHT22;11136;48.778;9.126;2023-02-20T09:26:46;12.80;98.40
21944;DHT22;11136;48.778;9.126;2023-02-20T09:29:12;12.80;98.20
21944;DHT22;11136;48.778;9.126;2023-02-20T09:31:38;12.90;98.00
21944;DHT22;11136;48.778;9.126;2023-02-20T09:34:03;12.90;97.40
21944;DHT22;11136;48.778;9.126;2023-02-20T09:36:29;12.90;97.30
21944;DHT22;11136;48.778;9.126;2023-02-20T09:38:55;12.90;96.80
21944;DHT22;11136;48.778;9.126;2023-02-20T09:44:15;12.90;96.30
21944;DHT22;11136;48.778;9.126;2023-02-20T09:46:44;12.90;96.70
21944;DHT22;11136;48.778;9.126;2023-02-20T09:49:31;13.10;96.40
21944;DHT22;11136;48.778;9.126;2023-02-20T09:52:05;13.20;96.50
21944;DHT22;11136;48.778;9.126;2023-02-20T09:57:08;13.40;96.30
21944;DHT22;11136;48.778;9.126;2023-02-20T09:59:40;13.50;96.00
21944;DHT22;11136;48.778;9.126;2023-02-20T10:02:14;13.50;95.90
21944;DHT22;11136;48.778;9.126;2023-02-20T10:04:48;13.60;95.60
21944;DHT22;11136;48.778;9.126;2023-02-20T10:09:55;13.50;94.00
21944;DHT22;11136;48.778;9.126;2023-02-20T10:12:31;13.30;93.80
21944;DHT22;11136;48.778;9.126;2023-02-20T10:20:55;12.80;94.30
21944;DHT22;11136;48.778;9.126;2023-02-20T10:23:46;12.70;94.60
21944;DHT22;11136;48.778;9.126;2023-02-20T10:26:20;12.70;94.70
21944;DHT22;11136;48.778;9.126;2023-02-20T10:28:50;12.70;94.90
21944;DHT22;11136;48.778;9.126;2023-02-20T10:31:35;12.70;94.90
21944;DHT22;11136;48.778;9.126;2023-02-20T10:34:08;12.70;95.30
21944;DHT22;11136;48.778;9.126;2023-02-20T10:36:43;12.80;95.20
21944;DHT22;11136;48.778;9.126;2023-02-20T10:39:13;12.80;95.00
21944;DHT22;11136;48.778;9.126;2023-02-20T10:44:15;12.90;94.80
21944;DHT22;11136;48.778;9.126;2023-02-20T10:47:02;12.90;94.90
21944;DHT22;11136;48.778;9.126;2023-02-20T10:49:34;13.00;95.10
21944;DHT22;11136;48.778;9.126;2023-02-20T10:52:04;13.10;95.30
21944;DHT22;11136;48.778;9.126;2023-02-20T10:54:40;13.20;95.30
21944;DHT22;11136;48.778;9.126;2023-02-20T10:57:13;13.40;95.30
21944;DHT22;11136;48.778;9.126;2023-02-20T10:59:52;13.50;95.00
21944;DHT22;11136;48.778;9.126;2023-02-20T11:02:25;13.60;94.30
21944;DHT22;11136;48.778;9.126;2023-02-20T11:04:56;13.60;93.80
21944;DHT22;11136;48.778;9.126;2023-02-20T11:07:24;13.60;93.40
21944;DHT22;11136;48.778;9.126;2023-02-20T11:09:51;13.60;93.20
21944;DHT22;11136;48.778;9.126;2023-02-20T11:12:33;13.60;93.10
21944;DHT22;11136;48.778;9.126;2023-02-20T11:15:11;13.70;92.90
21944;DHT22;11136;48.778;9.126;2023-02-20T11:17:39;13.70;93.00
21944;DHT22;11136;48.778;9.126;2023-02-20T11:20:11;13.80;93.40
21944;DHT22;11136;48.778;9.126;2023-02-20T11:22:51;13.90;92.90
21944;DHT22;11136;48.778;9.126;2023-02-20T11:25:30;13.90;92.80
21944;DHT22;11136;48.778;9.126;2023-02-20T11:28:17;14.00;92.70
21944;DHT22;11136;48.778;9.126;2023-02-20T11:30:46;14.10;92.40
21944;DHT22;11136;48.778;9.126;2023-02-20T11:33:25;14.10;92.50
21944;DHT22;11136;48.778;9.126;2023-02-20T11:36:07;14.20;91.90
21944;DHT22;11136;48.778;9.126;2023-02-20T11:38:35;14.20;92.00
21944;DHT22;11136;48.778;9.126;2023-02-20T11:41:06;14.30;92.00
21944;DHT22;11136;48.778;9.126;2023-02-20T11:43:36;14.40;92.10
21944;DHT22;11136;48.778;9.126;2023-02-20T11:46:21;14.40;91.90
21944;DHT22;11136;48.778;9.126;2023-02-20T11:49:08;14.50;91.70
21944;DHT22;11136;48.778;9.126;2023-02-20T11:54:08;14.70;91.90
21944;DHT22;11136;48.778;9.126;2023-02-20T11:56:33;14.80;91.80
21944;DHT22;11136;48.778;9.126;2023-02-20T11:59:39;14.90;91.80
21944;DHT22;11136;48.778;9.126;2023-02-20T12:05:06;15.20;91.40
21944;DHT22;11136;48.778;9.126;2023-02-20T12:07:41;15.40;91.40
21944;DHT22;11136;48.778;9.126;2023-02-20T12:10:24;15.50;91.10
21944;DHT22;11136;48.778;9.126;2023-02-20T12:12:52;15.60;90.60
21944;DHT22;11136;48.778;9.126;2023-02-20T12:15:20;15.40;90.40
21944;DHT22;11136;48.778;9.126;2023-02-20T12:20:30;15.80;89.40
21944;DHT22;11136;48.778;9.126;2023-02-20T12:23:15;15.90;89.40
21944;DHT22;11136;48.778;9.126;2023-02-20T12:25:56;16.00;88.00
21944;DHT22;11136;48.778;9.126;2023-02-20T12:34:14;16.10;85.70
21944;DHT22;11136;48.778;9.126;2023-02-20T12:36:46;16.10;86.60
21944;DHT22;11136;48.778;9.126;2023-02-20T12:39:30;16.20;87.30
21944;DHT22;11136;48.778;9.126;2023-02-20T12:42:16;16.30;86.50
21944;DHT22;11136;48.778;9.126;2023-02-20T12:45:15;16.40;86.00
21944;DHT22;11136;48.778;9.126;2023-02-20T12:47:43;16.50;84.30
21944;DHT22;11136;48.778;9.126;2023-02-20T13:01:02;17.20;82.30
21944;DHT22;11136;48.778;9.126;2023-02-20T13:06:04;17.40;80.40
21944;DHT22;11136;48.778;9.126;2023-02-20T13:08:33;17.50;79.60
21944;DHT22;11136;48.778;9.126;2023-02-20T13:11:09;17.50;77.80
21944;DHT22;11136;48.778;9.126;2023-02-20T13:19:49;17.80;75.70
21944;DHT22;11136;48.778;9.126;2023-02-20T13:22:17;17.90;75.80
21944;DHT22;11136;48.778;9.126;2023-02-20T13:24:43;18.00;74.90
21944;DHT22;11136;48.778;9.126;2023-02-20T13:27:30;18.20;73.80
21944;DHT22;11136;48.778;9.126;2023-02-20T13:30:11;18.30;72.00
21944;DHT22;11136;48.778;9.126;2023-02-20T13:32:41;18.50;72.10
21944;DHT22;11136;48.778;9.126;2023-02-20T13:38:15;18.90;67.50
21944;DHT22;11136;48.778;9.126;2023-02-20T13:40:43;19.10;65.50
21944;DHT22;11136;48.778;9.126;2023-02-20T13:45:46;19.60;63.90
21944;DHT22;11136;48.778;9.126;2023-02-20T13:53:39;20.70;63.70
21944;DHT22;11136;48.778;9.126;2023-02-20T13:56:14;21.00;63.50
21944;DHT22;11136;48.778;9.126;2023-02-20T13:58:40;21.30;61.60
21944;DHT22;11136;48.778;9.126;2023-02-20T14:01:06;21.40;58.30
21944;DHT22;11136;48.778;9.126;2023-02-20T14:03:34;21.30;56.70
21944;DHT22;11136;48.778;9.126;2023-02-20T14:08:30;21.10;55.70
21944;DHT22;11136;48.778;9.126;2023-02-20T14:13:48;21.10;54.50
21944;DHT22;11136;48.778;9.126;2023-02-20T14:16:33;21.00;53.70
21944;DHT22;11136;48.778;9.126;2023-02-20T14:19:24;20.80;52.30
21944;DHT22;11136;48.778;9.126;2023-02-20T14:21:51;20.70;52.80
21944;DHT22;11136;48.778;9.126;2023-02-20T14:24:22;20.60;52.80
21944;DHT22;11136;48.778;9.126;2023-02-20T14:26:49;20.50;52.70
21944;DHT22;11136;48.778;9.126;2023-02-20T14:29:34;20.40;53.00
21944;DHT22;11136;48.778;9.126;2023-02-20T14:32:02;20.10;51.90
21944;DHT22;11136;48.778;9.126;2023-02-20T14:34:45;20.20;52.30
21944;DHT22;11136;48.778;9.126;2023-02-20T14:37:49;20.20;52.50
21944;DHT22;11136;48.778;9.126;2023-02-20T14:42:51;20.10;52.60
21944;DHT22;11136;48.778;9.126;2023-02-20T14:45:25;20.10;53.00
21944;DHT22;11136;48.778;9.126;2023-02-20T14:47:57;20.10;53.20
21944;DHT22;11136;48.778;9.126;2023-02-20T14:50:34;20.10;52.80
21944;DHT22;11136;48.778;9.126;2023-02-20T14:53:13;20.10;52.50
21944;DHT22;11136;48.778;9.126;2023-02-20T14:55:38;20.10;52.90
21944;DHT22;11136;48.778;9.126;2023-02-20T14:58:15;20.10;53.10
21944;DHT22;11136;48.778;9.126;2023-02-20T15:00:42;20.20;52.40
21944;DHT22;11136;48.778;9.126;2023-02-20T15:03:25;20.10;52.30
21944;DHT22;11136;48.778;9.126;2023-02-20T15:05:52;20.10;52.10
21944;DHT22;11136;48.778;9.126;2023-02-20T15:08:22;20.00;52.50
21944;DHT22;11136;48.778;9.126;2023-02-20T15:10:53;20.00;52.00
21944;DHT22;11136;48.778;9.126;2023-02-20T15:13:34;19.90;51.60
21944;DHT22;11136;48.778;9.126;2023-02-20T15:16:13;19.90;51.70
21944;DHT22;11136;48.778;9.126;2023-02-20T15:18:44;19.80;51.90
21944;DHT22;11136;48.778;9.126;2023-02-20T15:21:11;19.70;51.60
21944;DHT22;11136;48.778;9.126;2023-02-20T15:23:42;19.60;52.10
21944;DHT22;11136;48.778;9.126;2023-02-20T15:26:28;19.60;51.90
21944;DHT22;11136;48.778;9.126;2023-02-20T15:29:18;19.40;52.20
21944;DHT22;11136;48.778;9.126;2023-02-20T15:31:45;19.30;52.40
21944;DHT22;11136;48.778;9.126;2023-02-20T15:34:17;19.20;52.70
21944;DHT22;11136;48.778;9.126;2023-02-20T15:36:43;19.10;52.70
21944;DHT22;11136;48.778;9.126;2023-02-20T15:39:10;19.00;52.80
21944;DHT22;11136;48.778;9.126;2023-02-20T15:41:37;18.80;52.90
21944;DHT22;11136;48.778;9.126;2023-02-20T15:44:03;18.70;53.00
21944;DHT22;11136;48.778;9.126;2023-02-20T15:46:29;18.60;53.40
21944;DHT22;11136;48.778;9.126;2023-02-20T15:48:54;18.50;53.20
21944;DHT22;11136;48.778;9.126;2023-02-20T15:51:21;18.30;53.40
21944;DHT22;11136;48.778;9.126;2023-02-20T15:53:47;18.20;53.60
21944;DHT22;11136;48.778;9.126;2023-02-20T15:56:16;18.10;53.80
21944;DHT22;11136;48.778;9.126;2023-02-20T15:58:42;18.00;53.60
21944;DHT22;11136;48.778;9.126;2023-02-20T16:01:09;17.80;53.50
21944;DHT22;11136;48.778;9.126;2023-02-20T16:03:35;17.70;53.90
21944;DHT22;11136;48.778;9.126;2023-02-20T16:06:01;17.60;54.00
21944;DHT22;11136;48.778;9.126;2023-02-20T16:08:27;17.50;54.30
21944;DHT22;11136;48.778;9.126;2023-02-20T16:10:53;17.30;54.30
21944;DHT22;11136;48.778;9.126;2023-02-20T16:13:24;17.20;54.40
21944;DHT22;11136;48.778;9.126;2023-02-20T16:15:50;17.10;55.20
21944;DHT22;11136;48.778;9.126;2023-02-20T16:18:16;17.10;54.80
21944;DHT22;11136;48.778;9.126;2023-02-20T16:20:41;17.00;54.90
21944;DHT22;11136;48.778;9.126;2023-02-20T16:23:07;16.90;55.10
21944;DHT22;11136;48.778;9.126;2023-02-20T16:25:33;16.80;55.20
21944;DHT22;11136;48.778;9.126;2023-02-20T16:27:59;16.80;55.40
21944;DHT22;11136;48.778;9.126;2023-02-20T16:30:29;16.70;55.60
21944;DHT22;11136;48.778;9.126;2023-02-20T16:32:56;16.50;55.90
21944;DHT22;11136;48.778;9.126;2023-02-20T16:35:22;16.40;56.40
21944;DHT22;11136;48.778;9.126;2023-02-20T16:37:48;16.30;56.90
21944;DHT22;11136;48.778;9.126;2023-02-20T16:40:14;16.20;57.40
21944;DHT22;11136;48.778;9.126;2023-02-20T16:42:39;16.10;57.70
21944;DHT22;11136;48.778;9.126;2023-02-20T16:45:15;16.00;57.90
21944;DHT22;11136;48.778;9.126;2023-02-20T16:47:42;15.90;58.30
21944;DHT22;11136;48.778;9.126;2023-02-20T16:50:14;15.80;58.60
21944;DHT22;11136;48.778;9.126;2023-02-20T16:52:40;15.70;58.90
21944;DHT22;11136;48.778;9.126;2023-02-20T16:55:29;15.60;59.10
21944;DHT22;11136;48.778;9.126;2023-02-20T16:57:55;15.60;59.70
21944;DHT22;11136;48.778;9.126;2023-02-20T17:00:30;15.50;60.00
21944;DHT22;11136;48.778;9.126;2023-02-20T17:02:57;15.40;60.10
21944;DHT22;11136;48.778;9.126;2023-02-20T17:05:31;15.40;60.30
21944;DHT22;11136;48.778;9.126;2023-02-20T17:07:57;15.30;60.50
21944;DHT22;11136;48.778;9.126;2023-02-20T17:10:24;15.20;60.80
21944;DHT22;11136;48.778;9.126;2023-02-20T17:12:50;15.10;61.10
21944;DHT22;11136;48.778;9.126;2023-02-20T17:15:18;15.00;61.40
21944;DHT22;11136;48.778;9.126;2023-02-20T17:17:45;14.90;61.60
21944;DHT22;11136;48.778;9.126;2023-02-20T17:20:25;14.80;61.80
21944;DHT22;11136;48.778;9.126;2023-02-20T17:22:51;14.70;62.10
21944;DHT22;11136;48.778;9.126;2023-02-20T17:25:23;14.60;62.30